sensor_id;sensor_type;location;lat;lon;timestamp;temperature;humidity
76139;DHT22;65138;50.946;7.074;2022-11-23T05:47:20;16.60;58.70
76139;DHT22;65138;50.946;7.074;2022-11-23T05:49:47;16.60;59.40
76139;DHT22;65138;50.946;7.074;2022-11-23T05:52:14;16.60;61.20
76139;DHT22;65138;50.946;7.074;2022-11-23T05:54:39;16.70;61.90
76139;DHT22;65138;50.946;7.074;2022-11-23T05:57:11;16.70;62.10
76139;DHT22;65138;50.946;7.074;2022-11-23T05:59:39;16.80;62.00
76139;DHT22;65138;50.946;7.074;2022-11-23T06:02:06;16.90;60.90
76139;DHT22;65138;50.946;7.074;2022-11-23T06:04:34;16.90;61.40
76139;DHT22;65138;50.946;7.074;2022-11-23T06:07:00;17.00;61.60
76139;DHT22;65138;50.946;7.074;2022-11-23T06:09:29;17.10;61.60
76139;DHT22;65138;50.946;7.074;2022-11-23T06:12:02;17.10;61.60
76139;DHT22;65138;50.946;7.074;2022-11-23T06:14:28;17.20;61.70
76139;DHT22;65138;50.946;7.074;2022-11-23T06:16:55;17.30;61.30
76139;DHT22;65138;50.946;7.074;2022-11-23T06:19:40;17.30;60.80
76139;DHT22;65138;50.946;7.074;2022-11-23T06:22:06;17.40;60.60
76139;DHT22;65138;50.946;7.074;2022-11-23T06:24:40;17.60;59.70
76139;DHT22;65138;50.946;7.074;2022-11-23T06:27:30;17.70;59.90
76139;DHT22;65138;50.946;7.074;2022-11-23T06:29:56;17.90;59.50
76139;DHT22;65138;50.946;7.074;2022-11-23T06:32:24;18.00;59.20
76139;DHT22;65138;50.946;7.074;2022-11-23T06:34:50;18.00;58.90
76139;DHT22;65138;50.946;7.074;2022-11-23T06:37:16;18.10;59.00
76139;DHT22;65138;50.946;7.074;2022-11-23T06:39:45;18.10;58.80
76139;DHT22;65138;50.946;7.074;2022-11-23T06:42:11;18.10;58.70
76139;DHT22;65138;50.946;7.074;2022-11-23T06:44:37;18.10;58.60
76139;DHT22;65138;50.946;7.074;2022-11-23T06:47:03;18.10;59.00
76139;DHT22;65138;50.946;7.074;2022-11-23T06:49:28;18.20;59.30
76139;DHT22;65138;50.946;7.074;2022-11-23T06:52:09;18.20;58.80
76139;DHT22;65138;50.946;7.074;2022-11-23T06:54:35;18.20;58.40
76139;DHT22;65138;50.946;7.074;2022-11-23T06:57:01;18.20;57.90
76139;DHT22;65138;50.946;7.074;2022-11-23T06:59:27;18.20;58.20
76139;DHT22;65138;50.946;7.074;2022-11-23T07:01:52;18.20;58.20
76139;DHT22;65138;50.946;7.074;2022-11-23T07:04:18;18.20;58.20
76139;DHT22;65138;50.946;7.074;2022-11-23T07:06:48;18.20;58.20
76139;DHT22;65138;50.946;7.074;2022-11-23T07:09:24;18.20;58.40
76139;DHT22;65138;50.946;7.074;2022-11-23T07:12:13;18.10;57.60
76139;DHT22;65138;50.946;7.074;2022-11-23T07:14:40;18.10;57.10
76139;DHT22;65138;50.946;7.074;2022-11-23T07:17:05;18.20;57.20
76139;DHT22;65138;50.946;7.074;2022-11-23T07:19:32;18.30;58.40
76139;DHT22;65138;50.946;7.074;2022-11-23T07:21:58;18.30;58.40
76139;DHT22;65138;50.946;7.074;2022-11-23T07:24:25;18.30;57.60
76139;DHT22;65138;50.946;7.074;2022-11-23T07:26:50;18.20;57.50
76139;DHT22;65138;50.946;7.074;2022-11-23T07:29:16;18.20;57.60
76139;DHT22;65138;50.946;7.074;2022-11-23T07:31:41;18.20;58.10
76139;DHT22;65138;50.946;7.074;2022-11-23T07:34:07;18.20;58.50
76139;DHT22;65138;50.946;7.074;2022-11-23T07:36:35;18.20;58.90
76139;DHT22;65138;50.946;7.074;2022-11-23T07:39:01;18.30;58.90
76139;DHT22;65138;50.946;7.074;2022-11-23T07:41:27;18.40;59.40
76139;DHT22;65138;50.946;7.074;2022-11-23T07:44:04;18.50;59.60
76139;DHT22;65138;50.946;7.074;2022-11-23T07:46:30;18.60;59.60
76139;DHT22;65138;50.946;7.074;2022-11-23T07:48:55;18.60;59.60
76139;DHT22;65138;50.946;7.074;2022-11-23T07:51:26;18.70;59.70
76139;DHT22;65138;50.946;7.074;2022-11-23T07:53:51;18.60;58.60
76139;DHT22;65138;50.946;7.074;2022-11-23T07:56:17;18.60;58.10
76139;DHT22;65138;50.946;7.074;2022-11-23T07:58:43;18.60;58.00
76139;DHT22;65138;50.946;7.074;2022-11-23T08:01:08;18.60;57.70
76139;DHT22;65138;50.946;7.074;2022-11-23T08:03:35;18.60;57.40
76139;DHT22;65138;50.946;7.074;2022-11-23T08:06:01;18.60;57.20
76139;DHT22;65138;50.946;7.074;2022-11-23T08:08:26;18.50;57.20
76139;DHT22;65138;50.946;7.074;2022-11-23T08:10:52;18.50;57.90
76139;DHT22;65138;50.946;7.074;2022-11-23T08:13:17;18.50;57.40
76139;DHT22;65138;50.946;7.074;2022-11-23T08:15:44;18.50;57.20
76139;DHT22;65138;50.946;7.074;2022-11-23T08:18:09;18.50;57.00
76139;DHT22;65138;50.946;7.074;2022-11-23T08:20:35;18.50;57.10
76139;DHT22;65138;50.946;7.074;2022-11-23T08:23:01;18.50;57.00
76139;DHT22;65138;50.946;7.074;2022-11-23T08:25:27;18.50;56.90
76139;DHT22;65138;50.946;7.074;2022-11-23T08:27:58;18.50;56.90
76139;DHT22;65138;50.946;7.074;2022-11-23T08:30:24;18.50;56.80
76139;DHT22;65138;50.946;7.074;2022-11-23T08:32:50;18.50;56.70
76139;DHT22;65138;50.946;7.074;2022-11-23T08:35:15;18.60;56.60
76139;DHT22;65138;50.946;7.074;2022-11-23T08:37:41;18.60;56.60
76139;DHT22;65138;50.946;7.074;2022-11-23T08:40:07;18.60;56.60
76139;DHT22;65138;50.946;7.074;2022-11-23T08:42:32;18.60;56.50
76139;DHT22;65138;50.946;7.074;2022-11-23T08:44:58;18.70;56.60
76139;DHT22;65138;50.946;7.074;2022-11-23T08:47:24;18.70;56.50
76139;DHT22;65138;50.946;7.074;2022-11-23T08:49:50;18.70;56.40
76139;DHT22;65138;50.946;7.074;2022-11-23T08:52:16;18.80;56.30
76139;DHT22;65138;50.946;7.074;2022-11-23T08:54:41;18.80;56.30
76139;DHT22;65138;50.946;7.074;2022-11-23T08:57:07;18.90;56.20
76139;DHT22;65138;50.946;7.074;2022-11-23T08:59:33;18.90;56.00
76139;DHT22;65138;50.946;7.074;2022-11-23T09:01:58;19.00;55.90
76139;DHT22;65138;50.946;7.074;2022-11-23T09:04:24;19.00;55.80
76139;DHT22;65138;50.946;7.074;2022-11-23T09:06:52;19.10;55.70
76139;DHT22;65138;50.946;7.074;2022-11-23T09:09:17;19.20;55.50
76139;DHT22;65138;50.946;7.074;2022-11-23T09:11:43;19.30;55.40
76139;DHT22;65138;50.946;7.074;2022-11-23T09:14:09;19.30;55.20
76139;DHT22;65138;50.946;7.074;2022-11-23T09:16:35;19.30;54.60
76139;DHT22;65138;50.946;7.074;2022-11-23T09:19:00;19.40;54.40
76139;DHT22;65138;50.946;7.074;2022-11-23T09:21:26;19.50;54.20
76139;DHT22;65138;50.946;7.074;2022-11-23T09:23:55;19.50;54.30
76139;DHT22;65138;50.946;7.074;2022-11-23T09:26:21;19.40;54.30
76139;DHT22;65138;50.946;7.074;2022-11-23T09:28:47;19.30;54.40
76139;DHT22;65138;50.946;7.074;2022-11-23T09:31:12;19.20;54.40
76139;DHT22;65138;50.946;7.074;2022-11-23T09:33:38;19.20;55.10
76139;DHT22;65138;50.946;7.074;2022-11-23T09:36:04;19.10;54.60
76139;DHT22;65138;50.946;7.074;2022-11-23T09:38:30;19.10;54.80
76139;DHT22;65138;50.946;7.074;2022-11-23T09:44:15;19.10;54.70
76139;DHT22;65138;50.946;7.074;2022-11-23T09:52:37;19.10;54.60
76139;DHT22;65138;50.946;7.074;2022-11-23T09:55:41;19.10;54.60
76139;DHT22;65138;50.946;7.074;2022-11-23T09:58:12;19.00;54.70
76139;DHT22;65138;50.946;7.074;2022-11-23T10:01:02;19.10;54.60
76139;DHT22;65138;50.946;7.074;2022-11-23T10:03:36;19.10;54.50
76139;DHT22;65138;50.946;7.074;2022-11-23T10:06:20;19.10;56.60
76139;DHT22;65138;50.946;7.074;2022-11-23T10:15:00;19.20;57.00
76139;DHT22;65138;50.946;7.074;2022-11-23T10:25:58;19.30;56.40
76139;DHT22;65138;50.946;7.074;2022-11-23T10:28:28;19.20;56.00
76139;DHT22;65138;50.946;7.074;2022-11-23T10:33:45;19.00;55.20
76139;DHT22;65138;50.946;7.074;2022-11-23T10:36:12;19.00;55.10
76139;DHT22;65138;50.946;7.074;2022-11-23T10:38:41;19.00;54.90
76139;DHT22;65138;50.946;7.074;2022-11-23T10:41:12;19.00;55.00
76139;DHT22;65138;50.946;7.074;2022-11-23T10:48:50;18.70;54.20
76139;DHT22;65138;50.946;7.074;2022-11-23T10:51:21;18.70;54.90
76139;DHT22;65138;50.946;7.074;2022-11-23T10:53:57;18.70;54.40
76139;DHT22;65138;50.946;7.074;2022-11-23T10:56:24;18.90;53.80
76139;DHT22;65138;50.946;7.074;2022-11-23T10:58:50;18.80;52.70
76139;DHT22;65138;50.946;7.074;2022-11-23T11:03:47;19.30;51.10
76139;DHT22;65138;50.946;7.074;2022-11-23T11:06:21;19.20;50.70
76139;DHT22;65138;50.946;7.074;2022-11-23T11:11:25;19.70;51.10
76139;DHT22;65138;50.946;7.074;2022-11-23T11:14:13;20.00;50.80
76139;DHT22;65138;50.946;7.074;2022-11-23T11:16:46;20.10;51.20
76139;DHT22;65138;50.946;7.074;2022-11-23T11:19:30;20.20;52.10
76139;DHT22;65138;50.946;7.074;2022-11-23T11:21:57;20.30;51.30
76139;DHT22;65138;50.946;7.074;2022-11-23T11:24:30;20.30;51.00
76139;DHT22;65138;50.946;7.074;2022-11-23T11:27:00;20.40;51.00
76139;DHT22;65138;50.946;7.074;2022-11-23T11:29:47;20.30;51.20
76139;DHT22;65138;50.946;7.074;2022-11-23T11:32:33;20.10;51.60
76139;DHT22;65138;50.946;7.074;2022-11-23T11:37:45;19.90;51.50
76139;DHT22;65138;50.946;7.074;2022-11-23T11:40:33;19.90;51.80
76139;DHT22;65138;50.946;7.074;2022-11-23T11:43:24;19.80;52.30
76139;DHT22;65138;50.946;7.074;2022-11-23T11:45:57;19.80;53.10
76139;DHT22;65138;50.946;7.074;2022-11-23T11:49:05;19.80;53.80
76139;DHT22;65138;50.946;7.074;2022-11-23T11:54:56;19.80;52.80
76139;DHT22;65138;50.946;7.074;2022-11-23T11:57:35;19.70;52.80
76139;DHT22;65138;50.946;7.074;2022-11-23T12:00:04;19.70;52.90
76139;DHT22;65138;50.946;7.074;2022-11-23T12:05:24;19.70;53.00
76139;DHT22;65138;50.946;7.074;2022-11-23T12:08:27;19.60;53.00
76139;DHT22;65138;50.946;7.074;2022-11-23T12:10:57;19.60;53.00
76139;DHT22;65138;50.946;7.074;2022-11-23T12:16:14;19.60;53.10
76139;DHT22;65138;50.946;7.074;2022-11-23T12:24:52;19.60;53.30
76139;DHT22;65138;50.946;7.074;2022-11-23T12:27:28;19.60;53.20
76139;DHT22;65138;50.946;7.074;2022-11-23T12:32:57;19.90;53.00
76139;DHT22;65138;50.946;7.074;2022-11-23T12:35:51;20.10;53.00
76139;DHT22;65138;50.946;7.074;2022-11-23T12:41:23;20.10;52.60
76139;DHT22;65138;50.946;7.074;2022-11-23T12:47:01;19.70;52.80
76139;DHT22;65138;50.946;7.074;2022-11-23T12:49:48;19.60;52.90
76139;DHT22;65138;50.946;7.074;2022-11-23T12:55:19;19.50;53.20
76139;DHT22;65138;50.946;7.074;2022-11-23T12:57:53;19.50;53.50
76139;DHT22;65138;50.946;7.074;2022-11-23T13:00:21;19.50;53.60
76139;DHT22;65138;50.946;7.074;2022-11-23T13:10:52;19.50;54.10
76139;DHT22;65138;50.946;7.074;2022-11-23T13:16:23;19.60;55.20
76139;DHT22;65138;50.946;7.074;2022-11-23T13:21:38;19.60;55.30
76139;DHT22;65138;50.946;7.074;2022-11-23T13:24:23;19.70;55.30
76139;DHT22;65138;50.946;7.074;2022-11-23T13:35:03;19.60;55.00
76139;DHT22;65138;50.946;7.074;2022-11-23T13:40:32;19.60;54.60
76139;DHT22;65138;50.946;7.074;2022-11-23T13:45:29;19.60;54.40
76139;DHT22;65138;50.946;7.074;2022-11-23T13:50:53;19.60;54.30
76139;DHT22;65138;50.946;7.074;2022-11-23T13:53:33;19.50;54.40
76139;DHT22;65138;50.946;7.074;2022-11-23T13:56:37;19.50;55.20
76139;DHT22;65138;50.946;7.074;2022-11-23T13:59:24;19.50;54.90
76139;DHT22;65138;50.946;7.074;2022-11-23T14:04:37;19.50;55.60
76139;DHT22;65138;50.946;7.074;2022-11-23T14:09:57;19.50;55.40
76139;DHT22;65138;50.946;7.074;2022-11-23T14:15:15;19.40;54.60
76139;DHT22;65138;50.946;7.074;2022-11-23T14:20:48;19.30;54.50
76139;DHT22;65138;50.946;7.074;2022-11-23T14:26:33;19.20;54.50
76139;DHT22;65138;50.946;7.074;2022-11-23T14:34:37;19.10;54.20
76139;DHT22;65138;50.946;7.074;2022-11-23T14:37:43;19.00;54.00
76139;DHT22;65138;50.946;7.074;2022-11-23T14:40:26;19.00;54.10
76139;DHT22;65138;50.946;7.074;2022-11-23T14:42:54;19.00;54.30
76139;DHT22;65138;50.946;7.074;2022-11-23T14:45:23;18.90;54.30
76139;DHT22;65138;50.946;7.074;2022-11-23T14:47:51;18.90;54.40
76139;DHT22;65138;50.946;7.074;2022-11-23T14:52:46;18.90;54.50
76139;DHT22;65138;50.946;7.074;2022-11-23T14:55:18;18.90;54.60
76139;DHT22;65138;50.946;7.074;2022-11-23T14:57:45;19.00;54.60
76139;DHT22;65138;50.946;7.074;2022-11-23T15:00:34;19.00;54.60
76139;DHT22;65138;50.946;7.074;2022-11-23T15:03:08;18.90;54.80
76139;DHT22;65138;50.946;7.074;2022-11-23T15:05:35;18.90;54.80
76139;DHT22;65138;50.946;7.074;2022-11-23T15:08:09;18.90;55.00
76139;DHT22;65138;50.946;7.074;2022-11-23T15:13:24;18.90;55.40
76139;DHT22;65138;50.946;7.074;2022-11-23T15:15:53;18.90;55.40
76139;DHT22;65138;50.946;7.074;2022-11-23T15:18:33;18.90;55.50
76139;DHT22;65138;50.946;7.074;2022-11-23T15:23:41;18.80;55.40
76139;DHT22;65138;50.946;7.074;2022-11-23T15:28:47;18.80;55.50
76139;DHT22;65138;50.946;7.074;2022-11-23T15:31:33;18.80;55.70
76139;DHT22;65138;50.946;7.074;2022-11-23T15:34:14;18.70;55.70
76139;DHT22;65138;50.946;7.074;2022-11-23T15:36:41;18.70;56.40
76139;DHT22;65138;50.946;7.074;2022-11-23T15:39:15;18.70;55.90
76139;DHT22;65138;50.946;7.074;2022-11-23T15:41:41;18.70;56.10
76139;DHT22;65138;50.946;7.074;2022-11-23T15:44:23;18.70;56.10
76139;DHT22;65138;50.946;7.074;2022-11-23T15:47:03;18.70;56.20
76139;DHT22;65138;50.946;7.074;2022-11-23T15:49:39;18.60;55.70
76139;DHT22;65138;50.946;7.074;2022-11-23T15:52:05;18.60;55.90
76139;DHT22;65138;50.946;7.074;2022-11-23T15:54:34;18.60;57.10
76139;DHT22;65138;50.946;7.074;2022-11-23T15:57:01;18.60;56.50
76139;DHT22;65138;50.946;7.074;2022-11-23T15:59:54;18.70;56.30
76139;DHT22;65138;50.946;7.074;2022-11-23T16:02:23;18.70;56.20
76139;DHT22;65138;50.946;7.074;2022-11-23T16:07:30;18.70;56.10
76139;DHT22;65138;50.946;7.074;2022-11-23T16:12:32;18.80;56.20
76139;DHT22;65138;50.946;7.074;2022-11-23T16:18:00;18.80;56.10
76139;DHT22;65138;50.946;7.074;2022-11-23T16:20:27;18.90;56.10
76139;DHT22;65138;50.946;7.074;2022-11-23T16:22:54;18.90;56.00
76139;DHT22;65138;50.946;7.074;2022-11-23T16:25:34;18.90;56.00
76139;DHT22;65138;50.946;7.074;2022-11-23T16:28:02;18.90;55.90
76139;DHT22;65138;50.946;7.074;2022-11-23T16:30:36;18.90;55.90
76139;DHT22;65138;50.946;7.074;2022-11-23T16:33:02;18.90;55.90
76139;DHT22;65138;50.946;7.074;2022-11-23T16:35:27;18.90;55.90
76139;DHT22;65138;50.946;7.074;2022-11-23T16:37:53;18.90;55.90
76139;DHT22;65138;50.946;7.074;2022-11-23T16:40:18;18.90;56.00
76139;DHT22;65138;50.946;7.074;2022-11-23T16:42:44;18.90;56.40
76139;DHT22;65138;50.946;7.074;2022-11-23T16:45:11;18.90;57.50
76139;DHT22;65138;50.946;7.074;2022-11-23T16:47:53;19.10;57.80
76139;DHT22;65138;50.946;7.074;2022-11-23T16:50:20;19.10;57.20
76139;DHT22;65138;50.946;7.074;2022-11-23T16:52:46;19.10;57.20
76139;DHT22;65138;50.946;7.074;2022-11-23T16:55:11;19.00;57.20
76139;DHT22;65138;50.946;7.074;2022-11-23T16:57:38;19.00;57.30
76139;DHT22;65138;50.946;7.074;2022-11-23T17:00:06;18.90;57.40
76139;DHT22;65138;50.946;7.074;2022-11-23T17:02:32;18.90;57.40
76139;DHT22;65138;50.946;7.074;2022-11-23T17:04:58;18.80;57.50
76139;DHT22;65138;50.946;7.074;2022-11-23T17:07:24;18.80;57.50
76139;DHT22;65138;50.946;7.074;2022-11-23T17:09:49;18.80;57.50
76139;DHT22;65138;50.946;7.074;2022-11-23T17:12:17;18.80;57.40
76139;DHT22;65138;50.946;7.074;2022-11-23T17:14:46;18.80;57.40
76139;DHT22;65138;50.946;7.074;2022-11-23T17:17:20;18.80;57.40
76139;DHT22;65138;50.946;7.074;2022-11-23T17:19:48;18.70;57.40
76139;DHT22;65138;50.946;7.074;2022-11-23T17:22:18;18.70;57.40
76139;DHT22;65138;50.946;7.074;2022-11-23T17:24:45;18.70;57.50
76139;DHT22;65138;50.946;7.074;2022-11-23T17:27:18;18.70;57.50
76139;DHT22;65138;50.946;7.074;2022-11-23T17:29:45;18.70;57.50
76139;DHT22;65138;50.946;7.074;2022-11-23T17:32:11;18.70;57.60
76139;DHT22;65138;50.946;7.074;2022-11-23T17:34:39;18.60;57.50
76139;DHT22;65138;50.946;7.074;2022-11-23T17:37:10;18.60;57.60
76139;DHT22;65138;50.946;7.074;2022-11-23T17:39:39;18.60;57.60
76139;DHT22;65138;50.946;7.074;2022-11-23T17:42:04;18.60;57.60
76139;DHT22;65138;50.946;7.074;2022-11-23T17:44:30;18.60;57.60
76139;DHT22;65138;50.946;7.074;2022-11-23T17:46:57;18.60;57.60
76139;DHT22;65138;50.946;7.074;2022-11-23T17:49:24;18.60;57.60
76139;DHT22;65138;50.946;7.074;2022-11-23T17:51:53;18.60;57.60
76139;DHT22;65138;50.946;7.074;2022-11-23T17:54:20;18.60;57.70
76139;DHT22;65138;50.946;7.074;2022-11-23T17:56:45;18.50;57.70
76139;DHT22;65138;50.946;7.074;2022-11-23T17:59:11;18.50;57.70
76139;DHT22;65138;50.946;7.074;2022-11-23T18:01:37;18.50;57.60
76139;DHT22;65138;50.946;7.074;2022-11-23T18:04:03;18.50;57.70
76139;DHT22;65138;50.946;7.074;2022-11-23T18:06:29;18.50;57.70
76139;DHT22;65138;50.946;7.074;2022-11-23T18:08:54;18.40;57.80
76139;DHT22;65138;50.946;7.074;2022-11-23T18:11:21;18.40;57.80
76139;DHT22;65138;50.946;7.074;2022-11-23T18:13:47;18.40;57.90
76139;DHT22;65138;50.946;7.074;2022-11-23T18:16:16;18.40;57.90
76139;DHT22;65138;50.946;7.074;2022-11-23T18:18:42;18.40;57.90
76139;DHT22;65138;50.946;7.074;2022-11-23T18:21:08;18.40;57.90
76139;DHT22;65138;50.946;7.074;2022-11-23T18:23:35;18.30;57.90
76139;DHT22;65138;50.946;7.074;2022-11-23T18:26:04;18.30;58.00
76139;DHT22;65138;50.946;7.074;2022-11-23T18:28:34;18.30;57.90
76139;DHT22;65138;50.946;7.074;2022-11-23T18:31:00;18.30;58.00
76139;DHT22;65138;50.946;7.074;2022-11-23T18:33:25;18.30;58.00
76139;DHT22;65138;50.946;7.074;2022-11-23T18:35:51;18.30;58.00
76139;DHT22;65138;50.946;7.074;2022-11-23T18:38:17;18.30;58.00
76139;DHT22;65138;50.946;7.074;2022-11-23T18:40:42;18.20;58.00
76139;DHT22;65138;50.946;7.074;2022-11-23T18:43:08;18.20;57.80
76139;DHT22;65138;50.946;7.074;2022-11-23T18:45:34;18.10;57.70
76139;DHT22;65138;50.946;7.074;2022-11-23T18:47:59;18.00;57.70
76139;DHT22;65138;50.946;7.074;2022-11-23T18:50:25;18.00;57.80
76139;DHT22;65138;50.946;7.074;2022-11-23T18:52:50;17.90;57.80
76139;DHT22;65138;50.946;7.074;2022-11-23T18:55:16;17.90;58.00
76139;DHT22;65138;50.946;7.074;2022-11-23T18:57:42;17.80;58.10
76139;DHT22;65138;50.946;7.074;2022-11-23T19:00:07;17.90;58.40
76139;DHT22;65138;50.946;7.074;2022-11-23T19:02:34;17.90;58.40
76139;DHT22;65138;50.946;7.074;2022-11-23T19:05:00;17.90;58.30
76139;DHT22;65138;50.946;7.074;2022-11-23T19:07:25;17.90;58.20
76139;DHT22;65138;50.946;7.074;2022-11-23T19:09:51;17.90;58.20
76139;DHT22;65138;50.946;7.074;2022-11-23T19:12:17;17.90;58.30
76139;DHT22;65138;50.946;7.074;2022-11-23T19:14:42;17.90;58.20
76139;DHT22;65138;50.946;7.074;2022-11-23T19:17:14;17.90;58.30
76139;DHT22;65138;50.946;7.074;2022-11-23T19:19:39;18.00;58.30
76139;DHT22;65138;50.946;7.074;2022-11-23T19:22:05;18.00;58.40
76139;DHT22;65138;50.946;7.074;2022-11-23T19:24:30;18.00;58.40
76139;DHT22;65138;50.946;7.074;2022-11-23T19:26:56;18.00;58.40
76139;DHT22;65138;50.946;7.074;2022-11-23T19:29:21;18.00;58.40
76139;DHT22;65138;50.946;7.074;2022-11-23T19:31:49;18.00;58.50
76139;DHT22;65138;50.946;7.074;2022-11-23T19:34:19;18.00;58.70
76139;DHT22;65138;50.946;7.074;2022-11-23T19:36:44;18.00;58.70
76139;DHT22;65138;50.946;7.074;2022-11-23T19:39:10;18.00;58.70
76139;DHT22;65138;50.946;7.074;2022-11-23T19:41:36;18.00;58.60
76139;DHT22;65138;50.946;7.074;2022-11-23T19:44:02;18.00;58.60
76139;DHT22;65138;50.946;7.074;2022-11-23T19:46:29;18.00;58.60
76139;DHT22;65138;50.946;7.074;2022-11-23T19:48:55;18.00;58.60
76139;DHT22;65138;50.946;7.074;2022-11-23T19:51:22;18.00;58.60
76139;DHT22;65138;50.946;7.074;2022-11-23T19:53:48;18.00;58.60
76139;DHT22;65138;50.946;7.074;2022-11-23T19:56:15;17.90;58.50
76139;DHT22;65138;50.946;7.074;2022-11-23T19:58:42;17.90;58.40
76139;DHT22;65138;50.946;7.074;2022-11-23T20:01:12;17.90;58.40
76139;DHT22;65138;50.946;7.074;2022-11-23T20:03:40;17.90;58.40
76139;DHT22;65138;50.946;7.074;2022-11-23T20:06:16;18.00;58.40
76139;DHT22;65138;50.946;7.074;2022-11-23T20:08:42;17.90;59.10
76139;DHT22;65138;50.946;7.074;2022-11-23T20:11:13;17.90;58.50
76139;DHT22;65138;50.946;7.074;2022-11-23T20:13:40;17.90;58.50
76139;DHT22;65138;50.946;7.074;2022-11-23T20:16:08;17.90;58.50
76139;DHT22;65138;50.946;7.074;2022-11-23T20:18:34;17.90;58.60
76139;DHT22;65138;50.946;7.074;2022-11-23T20:21:00;17.90;58.60
76139;DHT22;65138;50.946;7.074;2022-11-23T20:23:27;17.90;58.60
76139;DHT22;65138;50.946;7.074;2022-11-23T20:25:56;17.90;58.60
76139;DHT22;65138;50.946;7.074;2022-11-23T20:28:23;17.90;58.70
76139;DHT22;65138;50.946;7.074;2022-11-23T20:30:48;17.90;58.60
76139;DHT22;65138;50.946;7.074;2022-11-23T20:33:14;17.80;58.60
76139;DHT22;65138;50.946;7.074;2022-11-23T20:35:39;17.80;58.60
76139;DHT22;65138;50.946;7.074;2022-11-23T20:38:05;17.80;58.70
76139;DHT22;65138;50.946;7.074;2022-11-23T20:40:31;17.80;58.60
76139;DHT22;65138;50.946;7.074;2022-11-23T20:42:58;17.80;58.60
76139;DHT22;65138;50.946;7.074;2022-11-23T20:45:27;17.80;58.60
76139;DHT22;65138;50.946;7.074;2022-11-23T20:47:53;17.80;58.60
